Time;durP1;ratioP1;P1;durP2;ratioP2;P2;SDS_P1;SDS_P2;PMS_P1;PMS_P2;Temp;Humidity;BMP_temperature;BMP_pressure;BME280_temperature;BME280_humidity;BME280_pressure;Samples;Min_cycle;Max_cycle;Signal;HPM_P1;HPM_P2
2022/06/30 00:00:55;;;;;;;8.18;4.55;;;;;;;16.68;43.48;100111.63;5032892;28;20087;-59
2022/06/30 00:03:20;;;;;;;11.13;4.22;;;;;;;16.83;43.55;100143.50;5032419;28;20054;-57
2022/06/30 00:05:46;;;;;;;11.18;4.57;;;;;;;16.87;44.05;100144.88;5032338;28;20073;-59
2022/06/30 00:08:11;;;;;;;13.63;4.28;;;;;;;16.86;43.86;100148.59;5032125;28;20045;-59
2022/06/30 00:10:37;;;;;;;12.93;4.22;;;;;;;16.86;43.89;100154.84;5032033;28;20036;-57
2022/06/30 00:13:02;;;;;;;14.57;4.40;;;;;;;16.87;44.27;100161.09;5032155;28;20060;-57
2022/06/30 00:15:28;;;;;;;9.45;4.10;;;;;;;16.85;44.51;100152.28;5031408;28;20087;-56
2022/06/30 00:17:53;;;;;;;10.85;4.20;;;;;;;16.83;44.30;100159.72;5031822;28;20029;-57
2022/06/30 00:20:20;;;;;;;10.60;4.43;;;;;;;16.81;44.37;100156.31;5031777;28;20488;-57
2022/06/30 00:22:46;;;;;;;8.32;3.97;;;;;;;16.81;44.51;100161.72;5032020;28;20045;-63
2022/06/30 00:25:13;;;;;;;18.15;4.35;;;;;;;16.69;45.13;100143.06;5032223;28;20480;-56
2022/06/30 00:27:40;;;;;;;10.43;4.18;;;;;;;16.74;45.19;100151.56;5031257;28;20041;-55
2022/06/30 00:30:06;;;;;;;11.68;3.90;;;;;;;16.72;45.31;100153.56;5031599;28;20033;-59
2022/06/30 00:32:31;;;;;;;6.38;3.65;;;;;;;16.67;45.55;100145.06;5031785;28;20031;-57
2022/06/30 00:34:58;;;;;;;9.20;3.97;;;;;;;16.65;45.88;100142.53;5031930;28;20025;-58
2022/06/30 00:37:23;;;;;;;9.65;4.00;;;;;;;16.60;46.28;100143.97;5031384;28;20056;-57
2022/06/30 00:39:49;;;;;;;8.05;3.60;;;;;;;16.58;46.50;100149.56;5030904;28;20458;-56
2022/06/30 00:42:14;;;;;;;10.25;4.07;;;;;;;16.57;46.31;100152.41;5031901;28;20479;-59
2022/06/30 00:44:40;;;;;;;8.35;3.60;;;;;;;16.55;46.75;100146.31;5031398;28;20041;-55
2022/06/30 00:47:05;;;;;;;8.75;4.13;;;;;;;16.50;46.88;100144.94;5031282;28;20422;-59
2022/06/30 00:49:31;;;;;;;7.85;4.13;;;;;;;16.36;47.13;100121.13;5031069;28;20442;-60
2022/06/30 00:52:00;;;;;;;10.15;3.92;;;;;;;16.49;47.19;100148.63;5031202;28;20041;-56
2022/06/30 00:54:26;;;;;;;9.85;3.55;;;;;;;16.46;47.20;100143.53;5031611;28;20040;-56
2022/06/30 00:56:52;;;;;;;7.35;3.80;;;;;;;16.48;47.19;100146.94;5031087;28;20113;-55
2022/06/30 00:59:20;;;;;;;8.98;3.88;;;;;;;16.44;47.58;100139.28;5031209;28;20053;-62
2022/06/30 01:01:48;;;;;;;12.25;3.78;;;;;;;16.46;47.14;100143.53;5031217;28;20036;-62
2022/06/30 01:04:15;;;;;;;5.55;3.83;;;;;;;16.46;47.44;100142.69;4976877;28;1568510;-62
2022/06/30 01:06:44;;;;;;;8.63;3.90;;;;;;;16.46;48.03;100140.84;5032073;28;20041;-60
2022/06/30 01:09:11;;;;;;;8.57;3.90;;;;;;;16.42;48.34;100139.44;5032087;28;20125;-54
2022/06/30 01:14:21;;;;;;;11.60;4.25;;;;;;;16.45;48.08;100133.75;5012202;28;20034;-60
2022/06/30 01:16:47;;;;;;;14.07;4.55;;;;;;;16.29;48.29;100103.84;5012670;28;20188;-60
2022/06/30 01:19:14;;;;;;;7.57;4.55;;;;;;;16.47;48.21;100129.03;5012398;28;20112;-58
2022/06/30 01:21:40;;;;;;;12.05;4.43;;;;;;;16.44;48.36;100123.06;5010721;28;20108;-60
2022/06/30 01:24:05;;;;;;;10.93;4.50;;;;;;;16.43;48.85;100122.22;5030102;28;20342;-57
2022/06/30 01:26:31;;;;;;;17.48;5.00;;;;;;;16.44;48.66;100126.63;5031509;28;20029;-57
2022/06/30 01:28:57;;;;;;;14.50;5.30;;;;;;;16.39;48.91;100115.41;5029430;28;20378;-59
2022/06/30 01:31:23;;;;;;;10.23;4.90;;;;;;;16.37;48.88;100122.81;5031621;28;20087;-58
2022/06/30 01:33:49;;;;;;;12.13;5.18;;;;;;;16.46;48.74;100124.63;5031787;28;20025;-55
2022/06/30 01:36:15;;;;;;;14.57;5.43;;;;;;;16.45;49.13;100117.53;5031747;28;20037;-58
2022/06/30 01:38:41;;;;;;;14.30;4.75;;;;;;;16.45;49.27;100127.47;5031373;28;20366;-55
2022/06/30 01:41:07;;;;;;;13.65;5.15;;;;;;;16.45;49.37;100120.22;5032068;28;20029;-54
2022/06/30 01:43:32;;;;;;;8.02;4.80;;;;;;;16.46;49.39;100119.22;5031053;28;20124;-52
2022/06/30 01:45:58;;;;;;;14.30;5.00;;;;;;;16.47;49.24;100120.91;5031188;28;20029;-55
2022/06/30 01:48:23;;;;;;;14.02;4.70;;;;;;;16.49;49.20;100118.91;5031269;28;20029;-59
2022/06/30 01:50:49;;;;;;;11.43;4.28;;;;;;;16.45;49.23;100111.25;5031776;28;20037;-59
2022/06/30 01:53:14;;;;;;;16.55;4.57;;;;;;;16.44;49.09;100096.91;5030828;28;20036;-59
2022/06/30 01:55:40;;;;;;;12.63;4.80;;;;;;;16.50;49.27;100107.09;5030806;28;20041;-58
2022/06/30 01:58:06;;;;;;;15.13;5.10;;;;;;;16.55;49.24;100120.16;5031283;28;20083;-55
2022/06/30 02:00:32;;;;;;;13.35;4.57;;;;;;;16.58;49.58;100109.00;5031288;28;20109;-58
2022/06/30 02:02:59;;;;;;;12.65;4.43;;;;;;;16.62;49.29;100110.41;5030553;28;20477;-57
2022/06/30 02:05:25;;;;;;;13.63;4.25;;;;;;;16.69;48.35;100105.22;5030866;28;20037;-55
2022/06/30 02:07:52;;;;;;;8.90;4.28;;;;;;;16.74;48.88;100107.44;5031232;28;20163;-59
2022/06/30 02:10:20;;;;;;;11.10;4.03;;;;;;;16.81;49.13;100107.66;5031413;28;20037;-56
2022/06/30 02:12:46;;;;;;;15.30;4.90;;;;;;;16.80;48.70;100101.41;5030941;28;20547;-56
2022/06/30 02:15:23;;;;;;;10.20;4.68;;;;;;;17.03;47.99;100112.56;5030692;28;20037;-56
2022/06/30 02:17:52;;;;;;;10.65;4.07;;;;;;;17.09;48.36;100111.09;5031277;28;20036;-57
2022/06/30 02:20:21;;;;;;;11.35;3.45;;;;;;;17.22;47.65;100100.69;5031418;28;20091;-58
2022/06/30 02:22:49;;;;;;;7.93;3.72;;;;;;;17.29;46.77;100079.25;5030663;28;20087;-59
2022/06/30 02:25:15;;;;;;;9.13;3.38;;;;;;;17.70;46.15;100104.81;5030509;28;20241;-58
2022/06/30 02:27:41;;;;;;;8.30;3.50;;;;;;;17.97;45.33;100100.13;5030428;28;20030;-58
2022/06/30 02:30:07;;;;;;;7.53;2.97;;;;;;;18.25;44.33;100108.88;5031200;28;20051;-59
2022/06/30 02:32:33;;;;;;;10.43;3.40;;;;;;;18.48;43.78;100090.06;5030618;28;20029;-59
2022/06/30 02:34:58;;;;;;;9.93;3.38;;;;;;;18.79;43.05;100100.22;5028991;28;20028;-59
2022/06/30 02:37:24;;;;;;;9.88;3.75;;;;;;;19.08;42.31;100098.88;5030809;28;20033;-63
2022/06/30 02:39:50;;;;;;;9.30;3.42;;;;;;;19.40;41.92;100103.53;5030043;28;20052;-59
2022/06/30 02:42:15;;;;;;;10.45;3.53;;;;;;;19.68;40.96;100094.91;5030268;28;20045;-58
2022/06/30 02:44:41;;;;;;;8.70;3.60;;;;;;;19.87;40.58;100099.91;5030289;28;20398;-59
2022/06/30 02:47:07;;;;;;;6.63;3.10;;;;;;;20.08;40.15;100109.34;5030500;28;20496;-58
2022/06/30 02:49:33;;;;;;;10.48;3.90;;;;;;;20.04;39.92;100089.81;5030196;28;20075;-56
2022/06/30 02:51:59;;;;;;;8.23;3.72;;;;;;;19.98;40.20;100104.13;5030333;28;20037;-57
2022/06/30 02:54:24;;;;;;;8.63;4.10;;;;;;;19.82;40.72;100101.47;5030508;28;20401;-63
2022/06/30 02:56:50;;;;;;;10.35;3.83;;;;;;;19.72;40.34;100094.41;5030135;28;20036;-60
2022/06/30 02:59:16;;;;;;;8.73;4.78;;;;;;;19.89;40.21;100102.44;5030009;28;20044;-60
2022/06/30 03:01:41;;;;;;;19.38;4.75;;;;;;;20.18;39.44;100101.78;5045826;28;20036;-57
2022/06/30 03:04:07;;;;;;;15.48;5.05;;;;;;;20.42;38.78;100074.63;5030133;28;20050;-59
2022/06/30 03:06:34;;;;;;;16.33;5.07;;;;;;;21.12;37.26;100101.72;5030560;28;20160;-55
2022/06/30 03:09:01;;;;;;;22.90;6.05;;;;;;;21.46;36.73;100103.03;5028598;28;20034;-55
2022/06/30 03:11:27;;;;;;;24.65;5.90;;;;;;;21.80;36.04;100110.63;5030179;28;20036;-60
2022/06/30 03:13:53;;;;;;;19.40;5.63;;;;;;;22.08;35.27;100101.75;5030791;28;20036;-57
2022/06/30 03:16:19;;;;;;;22.65;5.80;;;;;;;22.41;34.32;100105.81;5030292;28;20037;-56
2022/06/30 03:18:44;;;;;;;21.08;5.95;;;;;;;22.74;33.79;100096.28;5029841;28;20033;-56
2022/06/30 03:21:11;;;;;;;16.23;5.38;;;;;;;23.13;32.88;100092.16;5030331;28;20029;-60
2022/06/30 03:23:37;;;;;;;14.05;5.43;;;;;;;23.56;31.81;100101.28;5030235;28;20029;-59
2022/06/30 03:26:03;;;;;;;13.50;4.78;;;;;;;23.74;31.24;100097.97;5029955;28;20057;-59
2022/06/30 03:28:29;;;;;;;22.60;5.35;;;;;;;24.07;30.87;100102.72;5028810;28;20030;-61
2022/06/30 03:30:55;;;;;;;19.30;5.85;;;;;;;24.32;30.29;100096.69;5030526;28;20413;-60
2022/06/30 03:33:21;;;;;;;17.67;5.15;;;;;;;24.50;30.30;100091.44;5030105;28;20041;-58
2022/06/30 03:35:47;;;;;;;15.45;4.70;;;;;;;24.63;29.68;100082.38;5030137;28;20033;-59
2022/06/30 03:38:14;;;;;;;14.38;4.20;;;;;;;24.86;29.40;100092.09;5030330;28;20033;-59
2022/06/30 03:40:40;;;;;;;17.80;4.53;;;;;;;25.20;28.33;100089.31;5029921;28;20113;-59
2022/06/30 03:43:06;;;;;;;14.82;4.18;;;;;;;25.58;27.84;100090.50;5030189;28;20485;-61
2022/06/30 03:45:33;;;;;;;10.43;4.03;;;;;;;25.90;27.63;100077.69;5030657;28;20033;-59
2022/06/30 03:48:04;;;;;;;10.77;3.70;;;;;;;26.42;26.91;100095.97;5029518;28;20120;-58
2022/06/30 03:50:30;;;;;;;11.60;4.03;;;;;;;26.76;26.15;100091.03;5030215;28;20045;-60
2022/06/30 03:52:59;;;;;;;8.73;3.80;;;;;;;27.55;25.07;100086.06;5034163;28;20029;-59
2022/06/30 03:55:25;;;;;;;13.65;3.88;;;;;;;28.09;24.23;100069.69;5034272;28;20033;-60
2022/06/30 03:57:50;;;;;;;11.90;3.72;;;;;;;28.72;23.63;100088.66;5033157;28;20036;-57
2022/06/30 04:00:16;;;;;;;9.82;3.15;;;;;;;29.26;22.69;100095.97;5033075;28;20073;-58
2022/06/30 04:02:41;;;;;;;12.07;3.47;;;;;;;29.69;22.08;100091.13;5033475;28;20549;-59
2022/06/30 04:05:07;;;;;;;12.57;3.58;;;;;;;30.25;21.38;100087.78;5048551;28;20053;-59
2022/06/30 04:07:41;;;;;;;8.85;3.13;;;;;;;30.97;20.70;100097.28;5032580;28;20045;-59
2022/06/30 04:10:08;;;;;;;11.77;3.05;;;;;;;31.63;20.17;100101.25;5032355;28;20497;-59
2022/06/30 04:12:34;;;;;;;10.48;3.40;;;;;;;31.76;19.55;100089.81;5033618;28;20025;-60
2022/06/30 04:14:59;;;;;;;7.00;2.65;;;;;;;32.35;19.32;100087.41;5031725;28;20498;-64
2022/06/30 04:17:25;;;;;;;11.93;2.97;;;;;;;32.70;18.53;100091.56;5032428;28;20049;-60
2022/06/30 04:19:50;;;;;;;4.35;2.58;;;;;;;33.15;17.88;100083.84;5033218;28;20037;-59
2022/06/30 04:22:16;;;;;;;6.07;2.75;;;;;;;33.62;17.67;100084.06;5033602;28;20031;-60
2022/06/30 04:24:41;;;;;;;11.02;2.80;;;;;;;33.95;16.74;100078.34;5033793;28;20072;-59
2022/06/30 04:27:07;;;;;;;6.00;2.38;;;;;;;33.98;16.68;100080.59;5032741;28;20493;-60
2022/06/30 04:29:32;;;;;;;8.60;2.70;;;;;;;34.01;16.50;100080.91;5032797;28;20053;-59
2022/06/30 04:34:42;;;;;;;5.38;2.05;;;;;;;34.17;16.38;100056.75;5033120;28;20452;-59
2022/06/30 04:37:07;;;;;;;4.50;1.92;;;;;;;35.03;15.76;100081.22;5032395;28;20146;-60
2022/06/30 04:39:33;;;;;;;6.47;2.15;;;;;;;35.94;15.34;100078.63;5032430;28;20393;-60
2022/06/30 04:41:58;;;;;;;6.20;2.28;;;;;;;36.43;14.44;100074.94;5033156;28;20030;-60
2022/06/30 04:44:24;;;;;;;5.30;1.60;;;;;;;37.13;13.98;100080.44;5032701;28;20033;-60
2022/06/30 04:46:49;;;;;;;3.08;1.77;;;;;;;37.88;12.71;100067.78;5032285;28;20083;-60
2022/06/30 04:49:15;;;;;;;5.00;1.67;;;;;;;38.12;12.14;100052.06;5030938;28;20389;-61
2022/06/30 04:51:40;;;;;;;7.00;1.48;;;;;;;38.81;12.22;100087.00;5032446;28;20044;-60
2022/06/30 04:54:06;;;;;;;5.57;1.40;;;;;;;39.01;11.35;100075.44;5032410;28;20101;-59
2022/06/30 04:56:31;;;;;;;2.08;1.20;;;;;;;39.28;11.06;100078.56;5031855;28;20539;-63
2022/06/30 04:58:57;;;;;;;3.17;1.30;;;;;;;39.59;10.77;100052.72;5032342;28;20045;-59
2022/06/30 05:01:23;;;;;;;1.30;1.10;;;;;;;40.11;10.42;100072.00;5031928;28;20469;-60
2022/06/30 05:03:49;;;;;;;4.53;0.98;;;;;;;40.09;10.20;100046.28;5030638;28;20057;-59
2022/06/30 05:06:14;;;;;;;4.20;0.98;;;;;;;39.68;10.34;100072.44;5031677;28;20049;-60
2022/06/30 05:08:40;;;;;;;3.80;0.93;;;;;;;40.30;9.91;100068.22;5032476;28;20037;-61
2022/06/30 05:11:05;;;;;;;1.90;1.00;;;;;;;41.19;9.54;100070.38;5031536;28;20045;-60
2022/06/30 05:13:31;;;;;;;7.32;1.20;;;;;;;41.37;9.16;100057.22;5031866;28;20033;-60
2022/06/30 05:15:57;;;;;;;6.50;1.20;;;;;;;41.27;9.18;100065.94;5031955;28;20129;-61
2022/06/30 05:18:26;;;;;;;1.70;0.93;;;;;;;40.98;9.30;100056.06;5027140;28;20097;-60
2022/06/30 05:20:52;;;;;;;5.93;1.50;;;;;;;41.52;8.81;100061.53;5019849;28;20391;-60
2022/06/30 05:23:18;;;;;;;3.03;1.02;;;;;;;41.94;8.70;100060.25;5032440;28;20037;-60
2022/06/30 05:28:27;;;;;;;2.72;1.00;;;;;;;42.60;8.11;100062.88;5030118;28;20075;-60
2022/06/30 05:30:55;;;;;;;3.63;1.38;;;;;;;42.92;7.70;100071.06;5031592;28;20838;-60
2022/06/30 05:33:21;;;;;;;1.45;0.90;;;;;;;42.34;8.02;100057.28;5031367;28;20022;-60
2022/06/30 05:35:48;;;;;;;1.48;0.90;;;;;;;41.88;7.58;100071.69;5030299;28;20530;-62
2022/06/30 05:38:15;;;;;;;2.53;1.00;;;;;;;41.61;8.07;100067.22;5031195;28;20029;-60
2022/06/30 05:40:41;;;;;;;3.05;0.90;;;;;;;41.82;8.04;100058.09;5031949;28;20060;-61
2022/06/30 05:43:08;;;;;;;4.18;1.10;;;;;;;42.44;7.62;100039.22;5031567;28;20452;-61
2022/06/30 05:45:33;;;;;;;3.17;0.95;;;;;;;43.59;7.25;100064.94;5031886;28;20030;-61
2022/06/30 05:47:59;;;;;;;1.30;1.00;;;;;;;44.91;5.86;100060.88;5031262;28;20183;-60
2022/06/30 05:50:24;;;;;;;10.48;1.25;;;;;;;45.09;5.58;100057.84;5031763;28;20044;-60
2022/06/30 05:52:53;;;;;;;2.00;1.02;;;;;;;45.34;5.66;100055.84;5031260;28;20112;-62
2022/06/30 05:55:18;;;;;;;2.53;0.90;;;;;;;45.68;4.85;100048.00;5031157;28;20087;-61
2022/06/30 05:57:51;;;;;;;1.00;1.00;;;;;;;45.97;4.78;100065.03;5030604;28;20033;-60
2022/06/30 06:00:18;;;;;;;1.70;1.00;;;;;;;46.05;4.73;100066.88;5031229;28;20041;-60
2022/06/30 06:02:44;;;;;;;4.57;1.05;;;;;;;46.23;4.52;100050.44;5030964;28;20108;-60
2022/06/30 06:05:10;;;;;;;5.47;1.10;;;;;;;46.29;4.30;100062.31;5031098;28;20440;-60
2022/06/30 06:07:36;;;;;;;1.23;0.73;;;;;;;46.43;4.36;100059.88;5030725;28;20549;-61
2022/06/30 06:10:02;;;;;;;3.53;1.17;;;;;;;46.06;4.33;100045.88;5031407;28;20029;-60
2022/06/30 06:12:28;;;;;;;1.45;1.10;;;;;;;46.08;4.24;100063.34;5031040;28;20477;-57
2022/06/30 06:14:54;;;;;;;3.38;1.70;;;;;;;45.82;3.91;100061.78;5030535;28;20033;-59
2022/06/30 06:17:20;;;;;;;3.63;1.00;;;;;;;45.74;3.68;100042.94;5030492;28;20076;-60
2022/06/30 06:19:45;;;;;;;1.23;1.13;;;;;;;45.97;3.66;100059.38;5029991;28;20076;-60
2022/06/30 06:22:11;;;;;;;3.40;0.90;;;;;;;46.20;4.41;100053.16;5029570;28;20029;-58
2022/06/30 06:24:36;;;;;;;6.45;1.15;;;;;;;46.87;3.91;100044.81;5030942;28;20052;-60
2022/06/30 06:27:02;;;;;;;3.92;0.95;;;;;;;47.27;3.79;100062.03;5031276;28;20075;-62
2022/06/30 06:29:27;;;;;;;3.65;1.00;;;;;;;47.43;3.72;100059.97;5031091;28;20032;-59
2022/06/30 06:31:53;;;;;;;2.35;1.00;;;;;;;47.78;3.34;100063.16;5030365;28;20128;-60
2022/06/30 06:34:18;;;;;;;1.60;1.40;;;;;;;47.97;3.24;100060.34;5030400;28;20029;-59
2022/06/30 06:36:44;;;;;;;2.03;1.23;;;;;;;47.96;3.24;100063.53;5030666;28;20025;-60
2022/06/30 06:39:09;;;;;;;5.10;1.45;;;;;;;47.85;2.76;100049.97;5030972;28;20057;-59
2022/06/30 06:41:35;;;;;;;2.78;1.00;;;;;;;48.46;2.49;100055.22;5030601;28;20037;-58
2022/06/30 06:44:00;;;;;;;2.10;1.05;;;;;;;48.61;2.44;100039.25;5029359;28;20069;-61
2022/06/30 06:46:29;;;;;;;3.35;1.20;;;;;;;48.64;2.40;100058.38;5022882;28;20032;-61
2022/06/30 06:48:59;;;;;;;4.00;1.20;;;;;;;47.66;2.37;100047.94;5025829;28;20037;-62
2022/06/30 06:51:25;;;;;;;0.90;0.90;;;;;;;47.96;2.25;100053.00;5030273;28;20392;-59
2022/06/30 06:53:51;;;;;;;2.10;1.00;;;;;;;49.05;2.57;100042.84;5029616;28;20038;-60
2022/06/30 06:56:17;;;;;;;4.28;1.30;;;;;;;49.03;2.65;100042.41;5029562;28;20465;-59
2022/06/30 06:58:43;;;;;;;2.22;1.38;;;;;;;48.89;2.89;100052.31;5029992;28;20079;-60
2022/06/30 07:01:08;;;;;;;2.20;1.42;;;;;;;49.07;2.33;100035.53;5029771;28;20414;-60
2022/06/30 07:03:34;;;;;;;1.33;1.00;;;;;;;49.41;2.31;100009.25;5029238;28;20085;-60
2022/06/30 07:06:00;;;;;;;1.67;1.00;;;;;;;50.65;1.68;100040.81;5028733;28;20528;-59
2022/06/30 07:08:25;;;;;;;1.48;1.00;;;;;;;51.28;1.53;100039.22;5029533;28;20046;-64
2022/06/30 07:10:51;;;;;;;1.35;1.25;;;;;;;51.45;1.06;100029.97;5029940;28;20060;-61
2022/06/30 07:13:17;;;;;;;2.85;1.45;;;;;;;51.00;1.61;100023.56;5029777;28;20026;-59
2022/06/30 07:15:42;;;;;;;2.55;1.40;;;;;;;51.61;1.68;100025.94;5029087;28;20033;-59
2022/06/30 07:18:08;;;;;;;3.95;1.80;;;;;;;51.79;1.06;100026.84;5028654;28;20496;-59
2022/06/30 07:20:34;;;;;;;2.00;1.40;;;;;;;51.66;1.03;100012.13;5029312;28;20041;-59
2022/06/30 07:22:59;;;;;;;1.52;1.40;;;;;;;52.11;1.10;100031.06;5029664;28;20034;-62
2022/06/30 07:25:25;;;;;;;1.75;1.63;;;;;;;52.68;0.74;100036.03;5029021;28;20029;-61
2022/06/30 07:27:50;;;;;;;2.53;1.90;;;;;;;52.99;0.76;100009.88;5033144;28;20124;-60
2022/06/30 07:30:16;;;;;;;2.13;1.60;;;;;;;53.70;0.88;100010.09;5032110;28;20420;-62
2022/06/30 07:32:41;;;;;;;1.92;1.70;;;;;;;54.09;0.19;100029.13;5033082;28;20377;-60
2022/06/30 07:35:07;;;;;;;2.45;2.17;;;;;;;54.06;0.41;100024.22;5032745;28;20123;-60
2022/06/30 07:37:40;;;;;;;2.10;1.90;;;;;;;53.76;0.80;100039.91;5031850;28;20073;-58
2022/06/30 07:40:06;;;;;;;1.83;1.73;;;;;;;53.50;0.80;100042.03;5033239;28;20473;-60
2022/06/30 07:42:32;;;;;;;2.45;1.95;;;;;;;53.96;0.64;100013.63;5032872;28;20389;-63
2022/06/30 07:44:58;;;;;;;2.55;2.25;;;;;;;55.02;0.38;100033.69;5033319;28;20033;-59
2022/06/30 07:47:24;;;;;;;2.42;2.28;;;;;;;54.89;1.05;100031.34;5030419;28;21222;-60
2022/06/30 07:49:49;;;;;;;5.25;2.38;;;;;;;55.54;0.30;100003.19;5027473;28;20358;-59
2022/06/30 07:52:15;;;;;;;4.50;2.65;;;;;;;55.48;0.74;100034.44;5031810;28;20032;-60
2022/06/30 07:54:40;;;;;;;3.38;2.88;;;;;;;55.83;0.18;100028.66;5026107;28;20069;-66
2022/06/30 07:57:06;;;;;;;3.15;2.85;;;;;;;56.04;0.52;100031.25;5031136;28;20074;-62
2022/06/30 07:59:32;;;;;;;4.28;3.20;;;;;;;55.16;0.65;100024.13;5023892;28;20065;-62
2022/06/30 08:01:58;;;;;;;2.85;2.60;;;;;;;54.29;0.89;100022.84;5032512;28;20042;-57
2022/06/30 08:04:24;;;;;;;6.85;2.60;;;;;;;53.95;1.30;100014.84;5031643;28;20045;-62
2022/06/30 08:06:49;;;;;;;3.85;2.50;;;;;;;53.42;1.23;100006.09;5032579;28;20056;-59
2022/06/30 08:09:15;;;;;;;2.63;2.50;;;;;;;52.18;1.42;100008.22;5030288;28;20065;-60
2022/06/30 08:11:40;;;;;;;2.45;2.35;;;;;;;51.09;2.29;100002.06;5016795;28;20116;-61
2022/06/30 08:14:06;;;;;;;3.10;2.30;;;;;;;51.00;2.51;100000.75;5025077;28;20084;-61
2022/06/30 08:16:32;;;;;;;2.83;2.58;;;;;;;50.20;2.36;99992.31;5030536;28;20071;-60
2022/06/30 08:18:57;;;;;;;3.40;2.10;;;;;;;50.24;2.71;100000.94;5030228;28;20316;-60
2022/06/30 08:21:23;;;;;;;3.08;1.83;;;;;;;50.19;3.13;99975.66;5032264;28;20030;-60
2022/06/30 08:23:48;;;;;;;4.75;1.80;;;;;;;49.22;2.88;99982.63;5029177;28;20033;-62
2022/06/30 08:26:14;;;;;;;1.75;1.55;;;;;;;47.29;3.75;99969.78;5030163;28;20063;-60
2022/06/30 08:28:39;;;;;;;1.98;1.40;;;;;;;44.37;4.99;99969.50;5032500;28;20359;-60
2022/06/30 08:31:05;;;;;;;4.63;1.63;;;;;;;41.14;6.91;99983.44;5032559;28;20108;-60
2022/06/30 08:33:31;;;;;;;10.68;1.83;;;;;;;37.98;8.77;99977.41;5032167;28;20103;-60
2022/06/30 08:35:56;;;;;;;2.30;1.40;;;;;;;35.94;10.04;99981.13;5032760;28;20492;-60
2022/06/30 08:38:22;;;;;;;2.38;1.40;;;;;;;34.34;11.38;99988.94;5032439;28;20041;-59
2022/06/30 08:43:33;;;;;;;;;;;;;;;32.79;11.98;99986.56;5032063;28;20041;-60
2022/06/30 08:46:00;;;;;;;4.15;1.33;;;;;;;30.92;13.21;99987.47;5031919;28;19963;-60
2022/06/30 08:48:27;;;;;;;2.47;1.40;;;;;;;30.22;14.67;99990.56;5031155;28;20033;-61
2022/06/30 08:51:15;;;;;;;6.13;1.35;;;;;;;30.12;14.10;99995.91;5032627;28;20127;-59
2022/06/30 08:53:50;;;;;;;2.17;1.42;;;;;;;29.30;15.61;99984.97;5032578;28;20068;-59
2022/06/30 08:56:17;;;;;;;4.40;1.88;;;;;;;28.54;17.00;99976.69;5031936;28;20043;-59
2022/06/30 08:58:44;;;;;;;5.57;2.10;;;;;;;28.25;17.30;99976.53;5031693;28;20120;-60
2022/06/30 09:01:10;;;;;;;5.90;1.88;;;;;;;28.00;17.04;99969.31;5032419;28;20030;-55
2022/06/30 09:03:37;;;;;;;4.70;1.70;;;;;;;27.88;17.42;99981.09;5030990;28;20045;-55
2022/06/30 09:06:04;;;;;;;4.07;1.60;;;;;;;27.73;17.90;99987.03;5031934;28;20041;-57
2022/06/30 09:08:30;;;;;;;8.43;1.85;;;;;;;27.52;18.04;99947.16;5032531;28;20026;-56
2022/06/30 09:10:55;;;;;;;4.55;1.45;;;;;;;27.48;18.35;99959.63;5030760;28;20116;-57
2022/06/30 09:13:23;;;;;;;5.07;1.60;;;;;;;27.44;18.65;99973.03;5031298;28;20033;-54
2022/06/30 09:15:51;;;;;;;4.28;2.00;;;;;;;27.54;18.63;99964.25;5031185;28;20045;-55
2022/06/30 09:18:28;;;;;;;8.32;2.58;;;;;;;27.71;17.94;99969.94;5030252;28;20040;-57
2022/06/30 09:20:55;;;;;;;2.97;2.15;;;;;;;27.57;18.45;99969.28;5031790;28;20120;-60
2022/06/30 09:23:30;;;;;;;4.03;2.30;;;;;;;27.65;18.50;99963.44;5031659;28;20033;-59
2022/06/30 09:26:02;;;;;;;5.32;1.90;;;;;;;27.53;18.78;99984.59;5031191;28;20041;-61
2022/06/30 09:28:44;;;;;;;4.20;1.90;;;;;;;27.50;18.34;99969.34;5030837;28;20450;-60
2022/06/30 09:31:13;;;;;;;3.28;1.58;;;;;;;27.35;18.46;99967.00;5028618;28;20171;-61
2022/06/30 09:33:41;;;;;;;1.83;1.30;;;;;;;27.27;18.36;99961.00;5018490;28;20037;-62
2022/06/30 09:36:25;;;;;;;5.55;1.83;;;;;;;27.35;18.89;99969.75;5028022;28;20974;-58
2022/06/30 09:39:06;;;;;;;2.90;1.75;;;;;;;27.15;18.90;99955.44;5030934;28;20040;-61
2022/06/30 09:41:35;;;;;;;1.10;1.00;;;;;;;26.87;19.75;99951.34;5031168;28;20461;-62
2022/06/30 09:44:00;;;;;;;2.65;1.33;;;;;;;26.78;20.06;99946.13;5030939;28;20034;-60
2022/06/30 09:46:26;;;;;;;4.68;1.23;;;;;;;26.79;20.09;99947.81;5031029;28;20068;-61
2022/06/30 09:48:51;;;;;;;5.25;1.67;;;;;;;26.69;20.14;99931.00;5028929;28;20156;-61
2022/06/30 09:51:18;;;;;;;1.48;1.27;;;;;;;26.76;20.25;99931.75;5026916;28;20042;-61
2022/06/30 09:54:10;;;;;;;4.10;1.38;;;;;;;27.06;19.56;99936.53;5027558;28;20045;-63
2022/06/30 09:56:36;;;;;;;3.50;1.20;;;;;;;27.06;20.46;99930.16;5027877;28;20026;-61
2022/06/30 09:59:06;;;;;;;3.35;1.30;;;;;;;27.22;20.18;99939.69;5030566;28;20026;-60
2022/06/30 10:01:53;;;;;;;2.53;1.17;;;;;;;27.42;19.74;99930.34;5031481;28;20112;-62
2022/06/30 10:04:19;;;;;;;3.15;1.30;;;;;;;27.31;20.65;99918.22;5030519;28;20057;-61
2022/06/30 10:06:45;;;;;;;6.53;1.30;;;;;;;27.35;20.57;99928.53;5030534;28;20119;-60
2022/06/30 10:09:15;;;;;;;4.10;1.10;;;;;;;27.34;20.17;99926.84;5030335;28;20446;-58
2022/06/30 10:11:42;;;;;;;3.22;1.50;;;;;;;27.22;19.69;99932.28;5030985;28;20033;-62
2022/06/30 10:14:10;;;;;;;4.40;1.40;;;;;;;27.17;19.79;99925.81;5030275;28;20060;-62
2022/06/30 10:16:39;;;;;;;10.32;1.63;;;;;;;27.22;19.62;99921.31;5029787;28;20030;-61
2022/06/30 10:19:06;;;;;;;5.28;1.15;;;;;;;27.18;20.34;99922.84;5034086;28;20030;-60
2022/06/30 10:21:33;;;;;;;6.43;1.40;;;;;;;27.15;20.17;99916.97;5030383;28;20098;-61
2022/06/30 10:23:59;;;;;;;4.07;1.50;;;;;;;27.15;20.56;99916.97;5030069;28;20037;-61
2022/06/30 10:29:10;;;;;;;3.83;1.20;;;;;;;27.10;20.51;99890.16;5030264;28;20495;-61
2022/06/30 10:31:46;;;;;;;2.80;1.38;;;;;;;27.20;19.96;99898.72;5030215;28;20040;-63
2022/06/30 10:34:14;;;;;;;2.60;1.35;;;;;;;27.22;20.33;99920.44;5029524;28;20030;-60
2022/06/30 10:36:46;;;;;;;3.85;1.23;;;;;;;27.19;20.43;99916.28;5025777;28;20068;-60
2022/06/30 10:39:34;;;;;;;2.83;1.38;;;;;;;27.25;20.73;99917.25;5028950;28;20541;-61
2022/06/30 10:41:59;;;;;;;3.00;1.50;;;;;;;27.16;20.79;99908.50;5045220;28;20140;-60
2022/06/30 10:44:27;;;;;;;2.15;1.25;;;;;;;27.18;20.79;99913.75;5030392;28;20512;-61
2022/06/30 10:46:55;;;;;;;2.80;1.35;;;;;;;27.21;21.30;99907.78;5030392;28;20072;-61
2022/06/30 10:49:23;;;;;;;4.63;1.13;;;;;;;27.27;20.92;99912.38;5029850;28;20025;-61
2022/06/30 10:51:49;;;;;;;2.40;1.00;;;;;;;27.30;20.97;99911.91;5028611;28;20060;-61
2022/06/30 10:54:34;;;;;;;2.83;1.13;;;;;;;27.49;20.35;99907.19;5030783;28;20532;-62
2022/06/30 10:57:01;;;;;;;2.63;1.03;;;;;;;27.30;20.98;99916.53;5030109;28;20083;-60
2022/06/30 10:59:36;;;;;;;7.43;1.20;;;;;;;27.17;21.15;99882.69;5030425;28;20037;-60
2022/06/30 11:02:11;;;;;;;;;;;;;;;27.48;21.35;99901.91;5050579;28;20025;-60
2022/06/30 11:04:47;;;;;;;2.70;1.17;;;;;;;27.41;21.30;99901.16;5033660;28;19921;-60
2022/06/30 11:07:17;;;;;;;5.32;1.30;;;;;;;27.39;21.20;99897.81;5034264;28;20478;-61
2022/06/30 11:09:49;;;;;;;4.25;1.20;;;;;;;27.44;21.37;99886.94;5034591;28;20771;-61
2022/06/30 11:12:42;;;;;;;2.15;1.15;;;;;;;27.58;20.46;99888.47;5034437;28;20048;-61
2022/06/30 11:15:10;;;;;;;5.32;1.25;;;;;;;27.60;20.59;99877.22;5033916;28;20080;-60
2022/06/30 11:17:39;;;;;;;2.72;0.90;;;;;;;27.76;20.59;99889.47;5034635;28;20040;-62
2022/06/30 11:20:05;;;;;;;5.88;1.20;;;;;;;27.69;21.13;99872.22;5033740;28;20038;-60
2022/06/30 11:22:31;;;;;;;1.85;1.08;;;;;;;27.65;21.04;99872.69;5034132;28;20500;-60
2022/06/30 11:25:05;;;;;;;1.90;1.10;;;;;;;27.69;20.77;99877.72;5034029;28;20044;-62
2022/06/30 11:27:36;;;;;;;2.28;1.35;;;;;;;27.49;21.17;99854.09;5034351;28;20144;-63
2022/06/30 11:30:08;;;;;;;1.27;1.00;;;;;;;27.44;21.12;99874.06;5033794;28;20025;-60
2022/06/30 11:32:34;;;;;;;1.13;0.85;;;;;;;27.25;21.09;99839.44;5033231;28;20022;-61
2022/06/30 11:35:14;;;;;;;3.83;1.40;;;;;;;27.47;20.71;99864.47;5033636;28;20022;-61
2022/06/30 11:37:39;;;;;;;4.32;1.52;;;;;;;27.50;21.31;99858.53;5034051;28;20040;-62
2022/06/30 11:40:09;;;;;;;2.85;1.17;;;;;;;27.65;21.06;99864.44;5033948;28;20492;-61
2022/06/30 11:42:39;;;;;;;2.05;1.50;;;;;;;27.63;21.40;99866.59;5033551;28;20021;-61